Time;durP1;ratioP1;P1;durP2;ratioP2;P2;SDS_P1;SDS_P2;PMS_P1;PMS_P2;Temp;Humidity;BMP_temperature;BMP_pressure;BME280_temperature;BME280_humidity;BME280_pressure;Samples;Min_cycle;Max_cycle;Signal;HPM_P1;HPM_P2
2021/01/22 00:02:08;;;;;;;17.95;6.03;;;;;;;1.32;86.00;98286.22;4991672;28;20373;-52
2021/01/22 00:04:38;;;;;;;18.75;7.15;;;;;;;1.30;85.90;98291.22;4991019;28;20052;-52
2021/01/22 00:07:07;;;;;;;16.00;6.90;;;;;;;1.30;86.03;98288.47;4991225;28;20108;-50
2021/01/22 00:09:36;;;;;;;16.90;6.85;;;;;;;1.27;86.04;98300.09;4992453;28;20054;-50
2021/01/22 00:12:03;;;;;;;16.45;6.57;;;;;;;1.27;85.82;98294.66;4988672;28;20081;-54
2021/01/22 00:14:29;;;;;;;15.55;6.93;;;;;;;1.28;86.13;98304.41;4992121;28;20050;-52
2021/01/22 00:16:56;;;;;;;18.33;6.35;;;;;;;1.27;85.87;98302.81;4970030;28;20566;-54
2021/01/22 00:19:22;;;;;;;20.23;7.47;;;;;;;1.26;85.75;98301.22;4991703;28;20420;-53
2021/01/22 00:21:48;;;;;;;14.88;7.22;;;;;;;1.23;86.04;98305.44;4992072;28;20148;-53
2021/01/22 00:24:15;;;;;;;18.98;7.63;;;;;;;1.26;85.77;98300.44;4990922;28;20050;-55
2021/01/22 00:26:41;;;;;;;21.58;8.10;;;;;;;1.24;85.97;98298.06;4989937;28;20295;-55
2021/01/22 00:29:07;;;;;;;18.65;7.22;;;;;;;1.18;86.03;98299.41;4988710;28;20120;-54
2021/01/22 00:31:34;;;;;;;17.27;7.22;;;;;;;1.17;86.00;98286.91;4990904;28;20504;-54
2021/01/22 00:34:01;;;;;;;18.50;6.53;;;;;;;1.17;86.00;98298.63;4989450;28;20046;-54
2021/01/22 00:36:27;;;;;;;14.02;7.20;;;;;;;1.15;86.28;98302.81;4989286;28;20515;-52
2021/01/22 00:38:53;;;;;;;19.38;8.65;;;;;;;1.14;86.20;98299.31;4972302;28;20046;-54
2021/01/22 00:41:19;;;;;;;18.65;7.40;;;;;;;1.15;85.89;98300.09;4988969;28;20074;-52
2021/01/22 00:43:46;;;;;;;22.27;10.10;;;;;;;1.11;86.18;98297.25;4991062;28;20050;-54
2021/01/22 00:46:12;;;;;;;21.90;7.65;;;;;;;1.11;86.19;98304.66;4987554;28;20054;-54
2021/01/22 00:48:39;;;;;;;24.63;7.72;;;;;;;1.08;86.11;98308.06;4990056;28;20074;-54
2021/01/22 00:51:05;;;;;;;21.70;8.70;;;;;;;1.07;86.25;98309.19;4975421;28;20567;-53
2021/01/22 00:53:32;;;;;;;19.83;7.35;;;;;;;1.07;85.86;98317.38;4980203;28;20097;-54
2021/01/22 00:55:58;;;;;;;16.25;7.60;;;;;;;1.06;86.12;98315.78;4990583;28;20129;-54
2021/01/22 00:58:25;;;;;;;19.15;7.45;;;;;;;1.06;85.85;98323.97;4987192;28;20093;-51
2021/01/22 01:00:51;;;;;;;19.00;7.60;;;;;;;1.07;86.12;98320.09;4992376;28;20058;-52
2021/01/22 01:03:17;;;;;;;19.45;7.88;;;;;;;1.04;86.05;98326.22;4988399;28;20143;-54
2021/01/22 01:05:44;;;;;;;19.55;8.75;;;;;;;1.03;85.99;98330.88;4980328;28;20039;-50
2021/01/22 01:08:10;;;;;;;17.23;8.43;;;;;;;1.03;86.25;98327.38;4974577;28;20051;-54
2021/01/22 01:10:37;;;;;;;15.90;6.57;;;;;;;1.02;86.01;98328.50;4985785;28;20408;-52
2021/01/22 01:13:03;;;;;;;12.90;5.85;;;;;;;1.02;86.09;98333.94;4993081;28;20054;-53
2021/01/22 01:15:33;;;;;;;14.20;6.60;;;;;;;1.01;85.76;98326.91;4982822;28;20046;-52
2021/01/22 01:17:59;;;;;;;15.77;7.97;;;;;;;0.98;86.02;98324.88;4973256;28;20086;-50
2021/01/22 01:20:27;;;;;;;13.38;6.43;;;;;;;0.93;86.10;98325.88;4983197;28;20050;-53
2021/01/22 01:22:53;;;;;;;19.40;6.28;;;;;;;0.94;86.26;98332.13;4991303;28;20123;-53
2021/01/22 01:25:19;;;;;;;10.48;6.05;;;;;;;0.92;85.85;98334.41;4992881;28;20070;-51
2021/01/22 01:27:47;;;;;;;11.57;6.63;;;;;;;0.90;86.15;98325.78;4991648;28;20137;-52
2021/01/22 01:30:14;;;;;;;11.20;6.18;;;;;;;0.88;86.18;98334.28;4992907;28;20042;-52
2021/01/22 01:32:40;;;;;;;15.77;5.55;;;;;;;0.86;86.11;98331.09;4992300;28;20129;-52
2021/01/22 01:35:08;;;;;;;16.00;5.85;;;;;;;0.84;86.00;98338.03;4985729;28;20054;-51
2021/01/22 01:37:34;;;;;;;15.40;6.97;;;;;;;0.82;86.19;98334.84;4987190;28;20082;-50
2021/01/22 01:40:00;;;;;;;17.60;7.57;;;;;;;0.79;86.01;98335.53;4975429;28;20057;-55
2021/01/22 01:42:28;;;;;;;17.75;7.05;;;;;;;0.76;86.13;98342.47;4989997;28;20588;-52
2021/01/22 01:44:54;;;;;;;11.73;5.85;;;;;;;0.79;86.10;98352.69;4985504;28;20105;-49
2021/01/22 01:47:24;;;;;;;17.23;7.25;;;;;;;0.78;86.32;98350.28;4986895;28;20050;-50
2021/01/22 01:49:50;;;;;;;19.23;8.43;;;;;;;0.78;85.90;98351.06;4968105;28;20092;-52
2021/01/22 01:52:17;;;;;;;21.23;6.65;;;;;;;0.78;86.42;98366.63;4973409;28;20074;-52
2021/01/22 01:54:44;;;;;;;22.00;7.28;;;;;;;0.76;86.04;98358.00;4940790;28;20141;-50
2021/01/22 01:57:13;;;;;;;17.83;6.07;;;;;;;0.74;86.28;98354.81;4955711;28;20122;-49
2021/01/22 01:59:40;;;;;;;14.27;6.13;;;;;;;0.74;86.25;98354.81;4955941;28;20043;-52
2021/01/22 02:02:06;;;;;;;12.00;5.93;;;;;;;0.76;86.18;98360.72;4972673;28;20114;-50
2021/01/22 02:04:33;;;;;;;26.58;7.03;;;;;;;0.75;86.39;98350.94;4972018;28;20039;-53
2021/01/22 02:06:59;;;;;;;11.07;6.55;;;;;;;0.75;86.28;98348.22;4971852;28;20046;-52
2021/01/22 02:09:27;;;;;;;12.43;5.47;;;;;;;0.76;86.35;98355.28;4972498;28;20047;-50
2021/01/22 02:11:54;;;;;;;19.02;6.18;;;;;;;0.75;86.20;98349.03;4971903;28;20129;-51
2021/01/22 02:14:20;;;;;;;22.38;7.05;;;;;;;0.75;86.52;98359.13;4973183;28;20046;-53
2021/01/22 02:16:47;;;;;;;13.38;5.93;;;;;;;0.75;86.09;98350.94;4972838;28;20061;-52
2021/01/22 02:19:21;;;;;;;11.55;5.82;;;;;;;0.77;86.34;98363.09;4970418;28;20050;-50
2021/01/22 02:21:47;;;;;;;14.50;5.95;;;;;;;0.78;86.27;98364.69;4972556;28;20485;-49
2021/01/22 02:24:22;;;;;;;22.65;6.97;;;;;;;0.77;85.93;98363.09;4972864;28;20039;-49
2021/01/22 02:27:08;;;;;;;13.73;5.50;;;;;;;0.76;86.30;98366.16;4972676;28;20453;-50
2021/01/22 02:29:37;;;;;;;12.25;5.85;;;;;;;0.76;86.23;98363.44;4971324;28;20050;-49
2021/01/22 02:32:06;;;;;;;17.25;6.63;;;;;;;0.75;86.00;98361.84;4972098;28;20122;-50
2021/01/22 02:34:39;;;;;;;9.13;4.47;;;;;;;0.73;86.23;98358.66;4972488;28;20057;-51
2021/01/22 02:37:09;;;;;;;12.50;6.10;;;;;;;0.72;86.33;98360.59;4972883;28;20129;-51
2021/01/22 02:39:38;;;;;;;19.27;5.93;;;;;;;0.73;86.36;98361.38;4954887;28;20046;-50
2021/01/22 02:42:08;;;;;;;13.77;5.82;;;;;;;0.72;86.26;98362.50;4971883;28;20480;-48
2021/01/22 02:44:37;;;;;;;16.02;6.60;;;;;;;0.71;86.10;98366.38;4972006;28;20043;-50
2021/01/22 02:47:14;;;;;;;13.45;7.05;;;;;;;0.71;86.40;98367.19;4972123;28;20130;-49
2021/01/22 02:49:41;;;;;;;12.82;5.40;;;;;;;0.72;86.13;98363.31;4975433;28;20093;-50
2021/01/22 02:52:08;;;;;;;12.93;5.75;;;;;;;0.73;86.20;98372.28;4984686;28;20058;-50
2021/01/22 02:54:36;;;;;;;16.70;5.63;;;;;;;0.72;86.10;98367.97;4991246;28;20046;-52
2021/01/22 02:57:14;;;;;;;18.55;7.22;;;;;;;0.71;86.20;98374.56;4992230;28;20459;-51
2021/01/22 02:59:52;;;;;;;13.25;5.43;;;;;;;0.68;86.43;98375.22;4991380;28;20061;-54
2021/01/22 03:02:21;;;;;;;15.32;5.20;;;;;;;0.68;86.32;98380.66;4987968;28;20100;-50
2021/01/22 03:04:48;;;;;;;10.55;6.22;;;;;;;0.68;86.42;98373.31;4990388;28;20054;-52
2021/01/22 03:07:22;;;;;;;13.68;6.50;;;;;;;0.68;86.25;98383.41;4991726;28;20133;-52
2021/01/22 03:09:53;;;;;;;20.00;6.32;;;;;;;0.68;86.62;98384.19;4991327;28;20052;-52
2021/01/22 03:12:21;;;;;;;20.08;5.55;;;;;;;0.68;86.31;98381.47;4991371;28;20048;-50
2021/01/22 03:14:49;;;;;;;15.05;5.28;;;;;;;0.69;86.37;98385.00;4991411;28;20046;-50
2021/01/22 03:17:19;;;;;;;8.55;6.13;;;;;;;0.72;86.55;98387.03;4990639;28;20548;-52
2021/01/22 03:19:47;;;;;;;14.93;5.65;;;;;;;0.71;86.43;98388.16;4987822;28;20042;-51
2021/01/22 03:22:14;;;;;;;17.92;6.13;;;;;;;0.73;86.41;98388.63;4991322;28;20074;-53
2021/01/22 03:24:41;;;;;;;16.10;6.68;;;;;;;0.74;86.55;98392.94;4991371;28;20051;-53
2021/01/22 03:27:08;;;;;;;15.38;4.80;;;;;;;0.75;86.53;98394.53;4991402;28;20150;-48
2021/01/22 03:29:37;;;;;;;15.20;5.03;;;;;;;0.76;86.27;98401.56;4990990;28;20401;-49
2021/01/22 03:32:04;;;;;;;13.02;5.53;;;;;;;0.78;86.46;98389.19;4988457;28;20038;-49
2021/01/22 03:34:31;;;;;;;11.88;4.45;;;;;;;0.79;86.26;98390.00;4974779;28;20100;-50
2021/01/22 03:36:59;;;;;;;9.57;4.50;;;;;;;0.81;86.31;98388.53;4988478;28;20399;-53
2021/01/22 03:39:26;;;;;;;12.40;4.85;;;;;;;0.82;86.44;98389.34;4990914;28;20137;-50
2021/01/22 03:41:54;;;;;;;17.73;5.00;;;;;;;0.82;86.19;98400.22;4993931;28;20064;-49
2021/01/22 03:44:22;;;;;;;13.23;4.88;;;;;;;0.82;86.17;98392.06;4993800;28;20042;-52
2021/01/22 03:46:49;;;;;;;10.85;5.38;;;;;;;0.83;86.31;98399.06;4994337;28;20046;-49
2021/01/22 03:49:15;;;;;;;14.77;5.38;;;;;;;0.82;86.15;98402.94;4994055;28;20112;-50
2021/01/22 03:51:41;;;;;;;13.07;5.82;;;;;;;0.82;86.42;98403.72;4977213;28;20133;-51
2021/01/22 03:54:08;;;;;;;14.13;5.65;;;;;;;0.84;86.44;98400.66;4982231;28;20471;-50
2021/01/22 03:56:34;;;;;;;15.23;5.72;;;;;;;0.83;86.62;98408.03;4995149;28;20141;-52
2021/01/22 03:59:04;;;;;;;16.08;4.75;;;;;;;0.86;86.50;98417.47;4969242;28;20052;-51
2021/01/22 04:01:31;;;;;;;14.68;5.18;;;;;;;0.85;86.44;98410.44;4977057;28;20088;-52
2021/01/22 04:03:58;;;;;;;13.70;4.03;;;;;;;0.85;86.44;98410.44;4993872;28;20054;-54
2021/01/22 04:06:24;;;;;;;21.52;5.75;;;;;;;0.86;86.37;98406.56;4990367;28;20046;-51
2021/01/22 04:08:51;;;;;;;14.88;4.47;;;;;;;0.86;86.49;98404.66;4993657;28;20124;-50
2021/01/22 04:11:18;;;;;;;15.23;5.10;;;;;;;0.84;85.93;98397.94;4978728;28;20085;-52
2021/01/22 04:13:44;;;;;;;6.30;3.90;;;;;;;0.82;86.25;98405.66;4993864;28;20050;-49
2021/01/22 04:16:12;;;;;;;9.10;4.57;;;;;;;0.82;86.32;98405.66;4994659;28;20125;-51
2021/01/22 04:18:39;;;;;;;12.27;4.55;;;;;;;0.82;86.21;98416.56;4993799;28;20038;-50
2021/01/22 04:21:06;;;;;;;10.30;4.53;;;;;;;0.80;86.27;98416.09;4994081;28;20046;-50
2021/01/22 04:23:33;;;;;;;14.90;6.20;;;;;;;0.79;86.42;98428.13;4993474;28;20046;-53
2021/01/22 04:26:01;;;;;;;18.98;7.20;;;;;;;0.80;86.11;98429.69;4993821;28;20125;-50
2021/01/22 04:28:27;;;;;;;7.90;3.90;;;;;;;0.81;86.21;98436.75;4976509;28;20088;-51
2021/01/22 04:30:54;;;;;;;11.98;4.10;;;;;;;0.81;86.38;98434.03;4992769;28;20133;-51
2021/01/22 04:33:20;;;;;;;8.95;3.40;;;;;;;0.81;86.28;98447.66;4993513;28;20042;-53
2021/01/22 04:35:49;;;;;;;13.93;4.10;;;;;;;0.80;86.50;98440.59;4986651;28;20057;-51
2021/01/22 04:38:16;;;;;;;9.77;4.05;;;;;;;0.83;86.44;98439.94;4993845;28;20573;-53
2021/01/22 04:40:42;;;;;;;13.20;4.10;;;;;;;0.84;86.20;98430.63;4993994;28;20050;-53
2021/01/22 04:43:09;;;;;;;8.05;3.28;;;;;;;0.83;86.14;98424.38;4976302;28;20054;-49
2021/01/22 04:45:36;;;;;;;14.88;4.32;;;;;;;0.84;86.44;98419.75;4993531;28;20124;-51
2021/01/22 04:48:06;;;;;;;11.30;4.03;;;;;;;0.84;86.22;98428.72;4993423;28;20555;-52
2021/01/22 04:50:34;;;;;;;13.23;4.20;;;;;;;0.84;86.20;98425.19;4975799;28;20049;-53
2021/01/22 04:53:09;;;;;;;9.38;3.78;;;;;;;0.83;86.39;98421.66;4993209;28;20050;-55
2021/01/22 04:55:43;;;;;;;6.95;3.20;;;;;;;0.82;86.21;98430.19;4993706;28;20134;-50
2021/01/22 04:58:11;;;;;;;10.23;3.80;;;;;;;0.83;86.41;98435.28;4993040;28;20045;-51
2021/01/22 05:00:38;;;;;;;14.77;4.38;;;;;;;0.81;86.19;98436.75;4992856;28;20042;-51
2021/01/22 05:03:05;;;;;;;11.05;3.45;;;;;;;0.79;86.30;98439.03;4991617;28;20497;-56
2021/01/22 05:05:31;;;;;;;6.75;4.72;;;;;;;0.80;86.44;98446.03;4992877;28;20157;-50
2021/01/22 05:07:58;;;;;;;8.38;3.30;;;;;;;0.79;86.66;98442.53;4987259;28;20069;-49
2021/01/22 05:10:24;;;;;;;11.98;3.28;;;;;;;0.78;86.08;98437.41;4993263;28;20097;-49
2021/01/22 05:12:50;;;;;;;12.82;4.30;;;;;;;0.77;86.53;98446.75;4992855;28;20054;-50
2021/01/22 05:15:24;;;;;;;7.90;3.63;;;;;;;0.76;86.33;98442.41;4975945;28;20105;-52
2021/01/22 05:18:01;;;;;;;19.42;4.20;;;;;;;0.73;86.36;98427.53;4988549;28;20089;-50
2021/01/22 05:20:34;;;;;;;9.90;4.32;;;;;;;0.72;86.31;98433.31;4992076;28;20057;-53
2021/01/22 05:23:06;;;;;;;7.20;3.53;;;;;;;0.72;86.57;98436.03;4974523;28;20093;-52
2021/01/22 05:26:02;;;;;;;8.85;2.75;;;;;;;0.69;86.55;98444.91;4992761;28;20547;-52
2021/01/22 05:28:32;;;;;;;15.55;4.68;;;;;;;0.68;86.70;98443.28;4992869;28;20610;-53
2021/01/22 05:30:58;;;;;;;9.50;3.88;;;;;;;0.68;86.55;98451.47;4991293;28;20133;-49
2021/01/22 05:33:26;;;;;;;11.07;4.65;;;;;;;0.66;86.17;98445.56;4991034;28;20416;-50
2021/01/22 05:35:52;;;;;;;13.45;4.75;;;;;;;0.65;86.58;98446.69;4965161;28;20051;-49
2021/01/22 05:38:38;;;;;;;9.32;3.28;;;;;;;0.61;86.27;98452.81;4973903;28;20034;-51
2021/01/22 05:41:06;;;;;;;13.32;4.38;;;;;;;0.61;86.51;98454.72;4963368;28;20045;-51
2021/01/22 05:43:39;;;;;;;8.73;3.33;;;;;;;0.59;86.41;98452.34;4992328;28;20125;-52
2021/01/22 05:46:16;;;;;;;11.63;4.43;;;;;;;0.55;86.92;98456.88;4992538;28;20766;-51
2021/01/22 05:48:43;;;;;;;11.25;4.15;;;;;;;0.55;86.62;98451.44;4992713;28;20487;-50
2021/01/22 05:51:12;;;;;;;12.15;3.97;;;;;;;0.54;86.42;98457.19;4981525;28;20061;-54
2021/01/22 05:53:48;;;;;;;17.58;4.45;;;;;;;0.52;86.49;98452.09;4992328;28;20045;-52
2021/01/22 05:56:18;;;;;;;11.65;3.60;;;;;;;0.52;86.63;98462.19;4993052;28;20054;-51
2021/01/22 05:58:47;;;;;;;13.85;3.83;;;;;;;0.51;86.62;98460.59;4991153;28;20130;-50
2021/01/22 06:01:15;;;;;;;10.80;3.50;;;;;;;0.51;86.30;98460.59;4991805;28;20054;-53
2021/01/22 06:03:46;;;;;;;11.68;3.75;;;;;;;0.48;86.54;98467.50;4990454;28;20092;-50
2021/01/22 06:06:13;;;;;;;14.32;4.63;;;;;;;0.49;86.42;98481.91;4992004;28;20038;-54
2021/01/22 06:08:47;;;;;;;13.63;3.67;;;;;;;0.50;86.63;98478.06;4987850;28;20073;-51
2021/01/22 06:11:15;;;;;;;7.57;3.72;;;;;;;0.50;86.57;98478.84;4989262;28;20440;-53
2021/01/22 06:13:45;;;;;;;13.35;3.85;;;;;;;0.52;86.93;98478.53;4974832;28;20487;-52
2021/01/22 06:16:15;;;;;;;9.80;3.95;;;;;;;0.54;87.07;98487.16;4992252;28;20077;-50
2021/01/22 06:18:51;;;;;;;11.77;3.67;;;;;;;0.56;86.93;98488.41;4992126;28;20069;-54
2021/01/22 06:21:25;;;;;;;7.82;3.28;;;;;;;0.57;86.66;98498.19;4991150;28;20444;-53
2021/01/22 06:23:53;;;;;;;10.70;4.05;;;;;;;0.58;87.09;98499.75;4976012;28;20050;-52
2021/01/22 06:26:20;;;;;;;11.95;3.72;;;;;;;0.60;86.88;98502.16;4989536;28;20038;-51
2021/01/22 06:28:50;;;;;;;13.02;3.72;;;;;;;0.61;86.87;98509.97;4991897;28;20050;-51
2021/01/22 06:31:18;;;;;;;10.07;3.95;;;;;;;0.64;86.79;98502.28;4991545;28;20062;-51
2021/01/22 06:33:46;;;;;;;10.13;4.07;;;;;;;0.61;86.79;98507.25;4991404;28;20483;-50
2021/01/22 06:36:14;;;;;;;11.05;4.55;;;;;;;0.58;87.02;98505.19;4991267;28;20049;-49
2021/01/22 06:38:42;;;;;;;17.80;4.07;;;;;;;0.58;86.64;98509.88;4992049;28;20054;-54
2021/01/22 06:41:11;;;;;;;10.60;4.38;;;;;;;0.56;86.63;98523.78;4973578;28;20097;-49
2021/01/22 06:43:41;;;;;;;9.23;3.45;;;;;;;0.56;86.76;98517.56;4979551;28;20671;-52
2021/01/22 06:46:12;;;;;;;10.82;4.38;;;;;;;0.53;86.65;98518.25;4984927;28;20035;-50
2021/01/22 06:48:52;;;;;;;16.23;3.97;;;;;;;0.52;86.87;98522.88;4991613;28;20060;-51
2021/01/22 06:51:20;;;;;;;11.93;4.20;;;;;;;0.52;86.77;98527.53;4989613;28;20055;-54
2021/01/22 06:54:09;;;;;;;8.05;4.13;;;;;;;0.50;86.97;98536.00;4991923;28;20451;-51
2021/01/22 06:56:48;;;;;;;18.08;4.18;;;;;;;0.49;87.12;98544.53;4991340;28;20507;-52
2021/01/22 06:59:28;;;;;;;10.13;3.58;;;;;;;0.49;87.20;98544.53;4986229;28;20438;-53
2021/01/22 07:01:59;;;;;;;11.65;3.70;;;;;;;0.49;87.02;98550.78;4977070;28;20035;-54
2021/01/22 07:04:28;;;;;;;14.48;4.43;;;;;;;0.48;87.31;98549.16;4991187;28;20386;-53
2021/01/22 07:07:13;;;;;;;13.05;3.75;;;;;;;0.48;87.09;98546.44;4991134;28;20465;-52
2021/01/22 07:09:42;;;;;;;16.10;4.32;;;;;;;0.48;87.40;98556.53;4991248;28;20046;-51
2021/01/22 07:12:12;;;;;;;18.98;5.18;;;;;;;0.45;87.45;98560.72;4991586;28;20125;-54
2021/01/22 07:14:44;;;;;;;7.38;3.80;;;;;;;0.48;87.46;98561.97;4972507;28;20046;-50
2021/01/22 07:17:29;;;;;;;15.82;4.05;;;;;;;0.48;87.25;98560.06;4983221;28;20042;-53
2021/01/22 07:20:05;;;;;;;13.73;4.00;;;;;;;0.49;87.53;98556.22;4992660;28;20093;-52
2021/01/22 07:22:33;;;;;;;12.38;3.92;;;;;;;0.50;87.16;98554.28;4995456;28;20039;-52
2021/01/22 07:25:01;;;;;;;10.55;4.10;;;;;;;0.50;87.51;98563.22;4994621;28;20126;-53
2021/01/22 07:27:40;;;;;;;10.93;3.90;;;;;;;0.50;87.33;98563.22;4995635;28;20136;-51
2021/01/22 07:30:16;;;;;;;6.65;3.85;;;;;;;0.49;87.30;98566.28;4994959;28;20038;-51
2021/01/22 07:32:44;;;;;;;10.55;3.72;;;;;;;0.50;87.42;98557.78;4995602;28;20050;-51
2021/01/22 07:35:29;;;;;;;8.52;3.83;;;;;;;0.50;87.56;98562.47;4994435;28;20057;-51
2021/01/22 07:37:55;;;;;;;8.60;3.67;;;;;;;0.50;87.46;98573.34;4995466;28;20121;-52
2021/01/22 07:40:21;;;;;;;9.25;3.97;;;;;;;0.51;87.51;98564.03;4994642;28;20046;-52
2021/01/22 07:42:47;;;;;;;12.13;4.78;;;;;;;0.51;87.63;98573.00;4994866;28;20492;-52
2021/01/22 07:45:16;;;;;;;13.82;4.45;;;;;;;0.50;87.50;98568.69;4992497;28;20054;-50
2021/01/22 07:47:48;;;;;;;10.55;3.72;;;;;;;0.55;87.61;98570.41;4992398;28;20061;-53
2021/01/22 07:50:16;;;;;;;10.10;4.15;;;;;;;0.54;87.46;98569.63;4988538;28;20049;-52
2021/01/22 07:52:45;;;;;;;15.35;3.67;;;;;;;0.56;87.23;98575.53;4981893;28;20082;-54
2021/01/22 07:55:23;;;;;;;12.93;3.85;;;;;;;0.56;87.57;98572.81;4982007;28;20461;-50
2021/01/22 07:58:05;;;;;;;9.50;3.80;;;;;;;0.57;87.53;98585.28;4993680;28;20050;-50
2021/01/22 08:00:38;;;;;;;;;;;;;;;0.58;87.73;98575.97;4995109;28;20109;-51
2021/01/22 08:03:05;;;;;;;;;;;;;;;0.57;87.97;98582.56;4989492;28;19933;-50
2021/01/22 08:05:33;;;;;;;11.20;4.85;;;;;;;0.58;87.53;98586.09;4994185;28;20013;-50
2021/01/22 08:08:19;;;;;;;9.80;3.55;;;;;;;0.57;87.62;98585.28;4990486;28;20054;-51
2021/01/22 08:10:47;;;;;;;13.45;3.70;;;;;;;0.58;87.77;98586.09;4975963;28;20121;-52
2021/01/22 08:13:16;;;;;;;10.93;3.97;;;;;;;0.57;87.84;98585.28;4992939;28;20097;-53
2021/01/22 08:15:44;;;;;;;9.25;3.92;;;;;;;0.57;87.77;98588.03;4994589;28;20101;-50
2021/01/22 08:18:14;;;;;;;7.80;3.28;;;;;;;0.58;87.61;98592.31;4993814;28;20137;-54
2021/01/22 08:20:50;;;;;;;12.23;4.30;;;;;;;0.60;88.03;98587.34;4993903;28;20113;-55
2021/01/22 08:23:21;;;;;;;11.32;3.40;;;;;;;0.62;87.91;98587.00;4993284;28;20026;-54
2021/01/22 08:25:47;;;;;;;7.22;3.47;;;;;;;0.65;88.10;98591.00;4983795;28;20567;-54
2021/01/22 08:28:16;;;;;;;10.45;4.00;;;;;;;0.68;88.14;98582.16;4976855;28;20054;-53
2021/01/22 08:30:47;;;;;;;9.05;3.72;;;;;;;0.69;88.04;98586.50;4992460;28;20508;-53
2021/01/22 08:33:13;;;;;;;8.18;4.22;;;;;;;0.71;87.87;98589.69;4994494;28;20078;-52
2021/01/22 08:35:40;;;;;;;6.50;3.45;;;;;;;0.71;88.10;98589.69;4987396;28;20046;-51
2021/01/22 08:38:07;;;;;;;11.75;4.70;;;;;;;0.72;87.74;98592.06;4991007;28;20444;-52
2021/01/22 08:40:43;;;;;;;8.18;4.68;;;;;;;0.72;87.74;98602.16;4991131;28;20058;-52
2021/01/22 08:43:12;;;;;;;8.88;4.13;;;;;;;0.70;87.87;98588.06;4989293;28;20077;-50
2021/01/22 08:45:40;;;;;;;8.13;4.68;;;;;;;0.71;87.95;98600.56;4991007;28;20046;-52
2021/01/22 08:48:06;;;;;;;7.55;4.40;;;;;;;0.71;88.06;98609.53;4991469;28;20137;-53
2021/01/22 08:50:38;;;;;;;7.32;3.78;;;;;;;0.70;88.01;98602.50;4989388;28;20121;-52
2021/01/22 08:53:09;;;;;;;10.63;4.07;;;;;;;0.73;88.01;98601.03;4992044;28;20050;-53
2021/01/22 08:55:40;;;;;;;6.78;4.13;;;;;;;0.73;88.03;98598.31;4989908;28;20053;-54
2021/01/22 08:58:12;;;;;;;9.38;2.90;;;;;;;0.73;87.94;98598.31;4991592;28;20088;-52
2021/01/22 09:00:39;;;;;;;7.07;3.35;;;;;;;0.75;88.13;98612.38;4989132;28;20057;-50
2021/01/22 09:03:19;;;;;;;6.03;3.53;;;;;;;0.75;87.97;98596.03;4991389;28;20136;-53
2021/01/22 09:05:50;;;;;;;7.45;3.30;;;;;;;0.75;88.02;98602.28;4973118;28;20052;-51
2021/01/22 09:08:16;;;;;;;6.65;3.20;;;;;;;0.75;88.14;98612.38;4989585;28;20078;-55
2021/01/22 09:10:47;;;;;;;7.88;3.20;;;;;;;0.77;88.04;98624.53;4990450;28;20057;-54
2021/01/22 09:13:19;;;;;;;5.22;3.28;;;;;;;0.78;88.30;98612.53;4983936;28;20100;-53
2021/01/22 09:15:46;;;;;;;8.27;3.33;;;;;;;0.79;87.86;98618.78;4987396;28;20711;-53
2021/01/22 09:18:19;;;;;;;6.50;3.00;;;;;;;0.76;88.46;98631.13;4973379;28;20696;-50
2021/01/22 09:21:04;;;;;;;11.30;2.95;;;;;;;0.76;88.39;98622.94;4989736;28;20101;-52
2021/01/22 09:23:30;;;;;;;7.13;3.28;;;;;;;0.78;88.30;98625.34;4988882;28;20128;-51
2021/01/22 09:25:57;;;;;;;7.72;3.40;;;;;;;0.78;87.97;98617.97;4989629;28;20066;-53
2021/01/22 09:28:24;;;;;;;10.38;5.40;;;;;;;0.79;88.20;98630.47;4989692;28;20147;-54
2021/01/22 09:30:50;;;;;;;11.25;4.40;;;;;;;0.78;88.05;98634.31;4990161;28;20053;-57
2021/01/22 09:33:17;;;;;;;11.82;4.00;;;;;;;0.79;87.95;98633.19;4989479;28;20450;-50
2021/01/22 09:35:43;;;;;;;7.95;3.88;;;;;;;0.79;88.13;98646.81;4990273;28;20039;-48
2021/01/22 09:38:09;;;;;;;8.40;3.42;;;;;;;0.79;88.10;98643.28;4988621;28;20400;-49
2021/01/22 09:40:36;;;;;;;9.55;4.55;;;;;;;0.79;88.14;98646.00;4988724;28;20635;-51
2021/01/22 09:43:03;;;;;;;10.82;4.40;;;;;;;0.80;87.94;98653.03;4989037;28;20874;-51
2021/01/22 09:45:29;;;;;;;22.27;6.95;;;;;;;0.80;87.90;98663.91;4990738;28;20046;-48
2021/01/22 09:47:59;;;;;;;12.30;4.35;;;;;;;0.79;88.00;98663.16;4971155;28;20039;-51
2021/01/22 09:50:25;;;;;;;11.35;5.00;;;;;;;0.80;88.18;98663.91;4988608;28;20046;-53
2021/01/22 09:52:51;;;;;;;11.82;3.53;;;;;;;0.82;88.08;98665.19;4989649;28;20160;-55
2021/01/22 09:55:19;;;;;;;12.30;5.25;;;;;;;0.85;88.04;98661.03;4989304;28;20042;-50
2021/01/22 09:57:47;;;;;;;16.58;5.82;;;;;;;0.85;88.21;98672.69;4990090;28;20043;-50
2021/01/22 10:00:15;;;;;;;15.50;4.55;;;;;;;0.86;88.00;98670.78;4988626;28;20046;-54
2021/01/22 10:02:42;;;;;;;12.82;5.13;;;;;;;0.88;88.15;98673.97;4989505;28;20156;-50
2021/01/22 10:05:10;;;;;;;12.55;6.05;;;;;;;0.92;88.32;98677.63;4989633;28;20042;-51
2021/01/22 10:07:37;;;;;;;12.25;4.32;;;;;;;0.93;87.93;98668.31;4988274;28;20050;-52
2021/01/22 10:10:06;;;;;;;11.50;4.93;;;;;;;0.95;88.32;98682.41;4971376;28;20042;-50
2021/01/22 10:12:32;;;;;;;15.85;5.22;;;;;;;0.93;88.20;98684.66;4988629;28;20050;-54
2021/01/22 10:14:59;;;;;;;9.10;4.70;;;;;;;0.96;88.37;98678.53;4988612;28;20050;-53
2021/01/22 10:17:27;;;;;;;9.85;4.40;;;;;;;0.98;88.07;98681.75;4989180;28;20050;-52
2021/01/22 10:19:54;;;;;;;12.73;4.88;;;;;;;0.99;87.83;98675.97;4971697;28;20512;-48
2021/01/22 10:22:20;;;;;;;7.30;4.80;;;;;;;1.00;88.02;98679.50;4988925;28;20080;-51
2021/01/22 10:24:47;;;;;;;13.13;5.10;;;;;;;1.01;87.89;98681.88;4981091;28;20049;-47
2021/01/22 10:27:13;;;;;;;10.98;4.63;;;;;;;1.03;87.94;98689.72;4989223;28;20046;-50
2021/01/22 10:29:39;;;;;;;10.30;4.93;;;;;;;1.05;88.19;98692.91;4989506;28;20559;-51
2021/01/22 10:32:05;;;;;;;12.05;4.55;;;;;;;1.07;87.94;98701.53;4988654;28;20073;-53
2021/01/22 10:34:32;;;;;;;14.85;5.22;;;;;;;1.09;88.24;98693.81;4988750;28;20121;-50
2021/01/22 10:36:58;;;;;;;12.18;5.32;;;;;;;1.11;88.05;98697.81;4989050;28;20035;-52
2021/01/22 10:39:24;;;;;;;12.55;5.18;;;;;;;1.13;88.07;98694.78;4989407;28;20136;-51
2021/01/22 10:41:53;;;;;;;8.77;5.18;;;;;;;1.16;88.14;98699.56;4983700;28;20038;-51
2021/01/22 10:44:20;;;;;;;10.25;5.55;;;;;;;1.22;87.94;98695.47;4988335;28;20455;-49
2021/01/22 10:46:47;;;;;;;7.45;4.78;;;;;;;1.25;87.95;98694.81;4989672;28;20050;-52
2021/01/22 10:49:18;;;;;;;12.25;5.22;;;;;;;1.31;88.14;98689.97;4987752;28;20044;-52
2021/01/22 10:51:48;;;;;;;14.65;5.53;;;;;;;1.37;88.05;98702.25;4988630;28;20055;-53
2021/01/22 10:54:14;;;;;;;11.35;5.25;;;;;;;1.40;88.06;98705.13;4989082;28;20566;-48
2021/01/22 10:56:40;;;;;;;9.32;4.70;;;;;;;1.45;88.23;98702.19;4984051;28;20050;-50
2021/01/22 10:59:07;;;;;;;10.20;5.13;;;;;;;1.48;88.27;98706.19;4983810;28;20130;-50
2021/01/22 11:01:33;;;;;;;10.60;6.07;;;;;;;1.52;88.02;98701.63;4988255;28;20093;-48
2021/01/22 11:03:59;;;;;;;9.60;5.00;;;;;;;1.55;88.21;98696.31;4989608;28;20126;-50
2021/01/22 11:06:28;;;;;;;11.18;4.80;;;;;;;1.59;87.87;98708.13;4988387;28;20049;-51
2021/01/22 11:08:55;;;;;;;8.07;4.13;;;;;;;1.62;87.81;98698.47;4970726;28;20507;-49
2021/01/22 11:11:21;;;;;;;12.90;5.97;;;;;;;1.63;88.11;98705.53;4987725;28;20389;-52
2021/01/22 11:13:48;;;;;;;10.77;4.60;;;;;;;1.64;87.64;98704.44;4989332;28;20452;-53
2021/01/22 11:16:14;;;;;;;9.55;5.18;;;;;;;1.63;87.61;98708.28;4966041;28;20483;-50
2021/01/22 11:18:40;;;;;;;10.13;5.57;;;;;;;1.61;87.80;98703.16;4987867;28;20104;-48
2021/01/22 11:21:07;;;;;;;13.32;6.97;;;;;;;1.63;87.86;98714.53;4985221;28;20073;-48
2021/01/22 11:23:33;;;;;;;11.77;7.80;;;;;;;1.62;87.71;98712.91;4989329;28;20042;-49
2021/01/22 11:25:59;;;;;;;13.23;8.05;;;;;;;1.63;87.55;98717.25;4987266;28;21734;-49
2021/01/22 11:28:27;;;;;;;15.15;8.43;;;;;;;1.64;87.63;98702.47;4972249;28;20101;-51
2021/01/22 11:30:54;;;;;;;15.70;7.88;;;;;;;1.65;87.98;98706.81;4988302;28;20045;-49
2021/01/22 11:33:23;;;;;;;11.65;6.75;;;;;;;1.66;87.93;98708.41;4988136;28;20043;-53
2021/01/22 11:35:49;;;;;;;12.18;7.68;;;;;;;1.69;87.65;98707.75;4971513;28;20054;-50
2021/01/22 11:38:16;;;;;;;14.82;7.68;;;;;;;1.74;87.92;98712.97;4987384;28;20479;-49
2021/01/22 11:40:42;;;;;;;20.63;9.48;;;;;;;1.84;87.90;98714.47;4988518;28;20046;-51
2021/01/22 11:43:09;;;;;;;15.48;8.23;;;;;;;1.91;88.10;98703.78;4989004;28;20065;-54
2021/01/22 11:45:36;;;;;;;13.77;7.28;;;;;;;1.93;87.60;98706.19;4987504;28;20045;-54